createdAt,value
2017-08-12T00:01:22.449Z,1008.41
2017-08-12T00:06:18.609Z,1008.41
2017-08-12T00:11:14.602Z,1008.45
2017-08-12T00:21:15.613Z,1008.36
2017-08-12T00:26:13.410Z,1008.32
2017-08-12T00:31:10.890Z,1008.33
2017-08-12T00:36:10.670Z,1008.19
2017-08-12T00:41:07.494Z,1008.23
2017-08-12T00:46:06.701Z,1008.14
2017-08-12T00:51:07.723Z,1008.02
2017-08-12T00:56:09.201Z,1008.09
2017-08-12T01:01:05.777Z,1008.06
2017-08-12T01:06:04.252Z,1008.09
2017-08-12T01:16:08.621Z,1008.03
2017-08-12T01:21:10.422Z,1007.97
2017-08-12T01:26:11.278Z,1007.95
2017-08-12T01:31:09.704Z,1007.94
2017-08-12T02:01:20.220Z,1007.87
2017-08-12T02:11:25.600Z,1007.84
2017-08-12T02:57:02.342Z,1007.37
2017-08-12T03:57:52.236Z,1007.03
2017-08-12T04:23:11.157Z,1007.28
2017-08-12T04:28:10.333Z,1007.18
2017-08-12T04:33:16.002Z,1007.09
2017-08-12T04:38:14.414Z,1007.23
2017-08-12T05:23:42.978Z,1007.06
2017-08-12T05:33:45.041Z,1007.02
2017-08-12T05:38:47.394Z,1007.09
2017-08-12T05:58:59.027Z,1007.11
2017-08-12T06:09:04.693Z,1007.21
2017-08-12T06:19:06.696Z,1007.38
2017-08-12T06:24:02.619Z,1007.31
2017-08-12T06:29:00.649Z,1007.35
2017-08-12T06:39:02.527Z,1007.25
2017-08-12T06:43:58.982Z,1007.37
2017-08-12T06:48:58.694Z,1007.32
2017-08-12T07:04:04.412Z,1007.32
2017-08-12T07:09:01.121Z,1007.33
2017-08-12T07:13:57.135Z,1007.32
2017-08-12T07:18:53.018Z,1007.32
2017-08-12T07:23:49.197Z,1007.40
2017-08-12T07:28:46.632Z,1007.35
2017-08-12T07:33:42.198Z,1007.32
2017-08-12T07:38:38.366Z,1007.31
2017-08-12T07:53:40.793Z,1007.35
2017-08-12T07:58:37.786Z,1007.28
2017-08-12T08:08:42.080Z,1007.27
2017-08-12T08:23:46.592Z,1007.40
2017-08-12T08:28:41.369Z,1007.44
2017-08-12T08:33:39.130Z,1007.37
2017-08-12T08:38:35.946Z,1007.44
2017-08-12T08:43:34.466Z,1007.36
2017-08-12T08:53:35.877Z,1007.43
2017-08-12T08:58:33.256Z,1007.42
2017-08-12T09:03:29.348Z,1007.39
2017-08-12T09:08:26.397Z,1007.44
2017-08-12T09:13:23.298Z,1007.47
2017-08-12T09:18:19.508Z,1007.46
2017-08-12T09:28:20.923Z,1007.41
2017-08-12T09:33:16.710Z,1007.38
2017-08-12T09:38:12.882Z,1007.37
2017-08-12T09:43:09.918Z,1007.38
2017-08-12T09:48:08.750Z,1007.46
2017-08-12T09:53:05.016Z,1007.40
2017-08-12T09:58:01.688Z,1007.51
2017-08-12T10:02:57.661Z,1007.52
2017-08-12T10:07:53.394Z,1007.45
2017-08-12T10:12:50.517Z,1007.44
2017-08-12T10:17:46.579Z,1007.51
2017-08-12T10:22:43.520Z,1007.48
2017-08-12T10:27:40.353Z,1007.54
2017-08-12T10:32:36.238Z,1007.55
2017-08-12T10:37:33.789Z,1007.44
2017-08-12T10:42:30.665Z,1007.52
2017-08-12T10:47:28.392Z,1007.54
2017-08-12T10:52:25.192Z,1007.59
2017-08-12T10:57:21.846Z,1007.56
2017-08-12T11:02:17.319Z,1007.61
2017-08-12T11:07:13.698Z,1007.61
2017-08-12T11:12:11.061Z,1007.64
2017-08-12T11:17:08.564Z,1007.63
2017-08-12T11:22:05.185Z,1007.59
2017-08-12T11:27:02.081Z,1007.55
2017-08-12T11:31:58.111Z,1007.64
2017-08-12T11:36:53.859Z,1007.72
2017-08-12T11:41:51.043Z,1007.62
2017-08-12T11:46:49.951Z,1007.61
2017-08-12T11:51:49.357Z,1007.63
2017-08-12T11:56:45.067Z,1007.57
2017-08-12T12:01:41.984Z,1007.70
2017-08-12T12:06:44.529Z,1007.68
2017-08-12T12:11:41.834Z,1007.64
2017-08-12T12:16:40.013Z,1007.70
2017-08-12T12:21:37.640Z,1007.72
2017-08-12T12:26:34.244Z,1007.79
2017-08-12T12:31:30.108Z,1007.74
2017-08-12T12:36:26.549Z,1007.87
2017-08-12T12:41:23.143Z,1007.84
2017-08-12T12:46:21.110Z,1007.91
2017-08-12T12:51:18.666Z,1007.98
2017-08-12T12:56:14.306Z,1007.92
2017-08-12T13:01:11.242Z,1007.96
2017-08-12T13:06:06.986Z,1007.91
2017-08-12T13:11:04.372Z,1007.91
2017-08-12T13:16:01.268Z,1007.86
2017-08-12T13:20:57.605Z,1007.83
2017-08-12T13:25:53.388Z,1007.85
2017-08-12T13:30:49.749Z,1007.87
2017-08-12T13:35:46.271Z,1007.74
2017-08-12T13:40:43.033Z,1007.87
2017-08-12T13:45:39.430Z,1007.71
2017-08-12T13:50:36.266Z,1007.91
2017-08-12T13:55:31.976Z,1007.83
2017-08-12T14:00:29.812Z,1007.82
2017-08-12T14:05:28.149Z,1007.86
2017-08-12T14:10:26.290Z,1007.98
2017-08-12T14:15:22.978Z,1007.90
2017-08-12T14:20:20.099Z,1008.01
2017-08-12T14:25:17.260Z,1007.95
2017-08-12T14:30:15.587Z,1008.06
2017-08-12T14:35:12.768Z,1007.95
2017-08-12T14:40:08.460Z,1007.94
2017-08-12T14:45:04.804Z,1008.01
2017-08-12T14:50:03.999Z,1008.05
2017-08-12T14:55:00.379Z,1008.00
2017-08-12T14:59:55.657Z,1008.09
2017-08-12T15:04:52.782Z,1008.12
2017-08-12T15:09:48.538Z,1008.13
2017-08-12T15:14:44.613Z,1008.04
2017-08-12T15:19:41.632Z,1008.13
2017-08-12T15:24:37.441Z,1007.96
2017-08-12T15:34:32.563Z,1008.18
2017-08-12T15:39:28.507Z,1008.19
2017-08-12T15:44:25.055Z,1008.15
2017-08-12T15:49:22.275Z,1008.14
2017-08-12T15:54:18.375Z,1008.03
2017-08-12T15:59:14.158Z,1008.10
2017-08-12T16:04:11.424Z,1007.99
2017-08-12T16:09:09.255Z,1007.99
2017-08-12T16:14:05.615Z,1008.03
2017-08-12T16:19:03.078Z,1008.05
2017-08-12T16:23:59.156Z,1008.00
2017-08-12T16:28:55.200Z,1008.01
2017-08-12T16:33:52.018Z,1008.04
2017-08-12T16:38:48.729Z,1008.06
2017-08-12T16:43:46.402Z,1008.05
2017-08-12T16:48:42.119Z,1008.07
2017-08-12T16:53:38.963Z,1007.99
2017-08-12T17:03:38.282Z,1008.02
2017-08-12T17:13:40.377Z,1008.03
2017-08-12T17:28:41.705Z,1007.98
2017-08-12T17:33:38.382Z,1007.92
2017-08-12T17:38:33.995Z,1007.98
2017-08-12T17:43:30.982Z,1008.23
2017-08-12T17:48:26.976Z,1008.24
2017-08-12T17:53:23.835Z,1008.25
2017-08-12T17:58:20.123Z,1008.20
2017-08-12T18:03:17.396Z,1008.27
2017-08-12T18:08:13.363Z,1008.30
2017-08-12T18:13:09.088Z,1008.30
2017-08-12T18:18:04.735Z,1008.38
2017-08-12T18:23:02.245Z,1008.35
2017-08-12T18:27:58.918Z,1008.49
2017-08-12T18:33:00.493Z,1008.56
2017-08-12T18:43:02.928Z,1008.68
2017-08-12T18:53:04.206Z,1008.67
2017-08-12T19:08:06.166Z,1008.69
2017-08-12T19:18:06.684Z,1008.95
2017-08-12T19:23:06.308Z,1008.96
2017-08-12T19:28:03.158Z,1009.05
2017-08-12T19:33:02.644Z,1009.06
2017-08-12T19:48:06.563Z,1009.23
2017-08-12T19:58:10.303Z,1009.32
2017-08-12T20:03:07.786Z,1009.31
2017-08-12T20:08:07.089Z,1009.28
2017-08-12T20:13:06.763Z,1009.34
2017-08-12T20:18:02.955Z,1009.40
2017-08-12T20:23:00.003Z,1009.39
2017-08-12T20:33:01.900Z,1009.42
2017-08-12T20:43:01.508Z,1009.44
2017-08-12T20:47:57.431Z,1009.60
2017-08-12T20:52:56.651Z,1009.74
2017-08-12T21:02:54.298Z,1009.85
2017-08-12T21:07:51.069Z,1009.94
2017-08-12T21:12:47.685Z,1010.00
2017-08-12T21:17:43.246Z,1009.82
2017-08-12T21:22:39.914Z,1009.78
2017-08-12T21:27:36.825Z,1009.81
2017-08-12T21:32:33.364Z,1009.81
2017-08-12T21:37:28.898Z,1009.80
2017-08-12T21:42:24.924Z,1009.75
2017-08-12T21:47:21.726Z,1009.82
2017-08-12T21:52:20.092Z,1009.82
2017-08-12T21:57:15.904Z,1009.83
2017-08-12T22:02:14.088Z,1009.87
2017-08-12T22:07:11.177Z,1009.96
2017-08-12T22:12:13.095Z,1009.98
2017-08-12T22:17:14.469Z,1010.13
2017-08-12T22:22:10.133Z,1010.17
2017-08-12T22:42:23.478Z,1010.22
2017-08-12T22:47:21.254Z,1010.14
2017-08-12T22:52:20.077Z,1010.12
2017-08-12T23:12:29.101Z,1010.39
2017-08-12T23:17:26.203Z,1010.34
2017-08-12T23:22:24.164Z,1010.41
2017-08-12T23:47:31.292Z,1010.39
2017-08-12T23:57:38.216Z,1010.39
